createdAt,value
2022-09-23T00:00:44.773Z,0.00
2022-09-23T00:01:44.809Z,0.00
2022-09-23T00:02:44.842Z,0.00
2022-09-23T00:03:44.736Z,0.00
2022-09-23T00:04:44.740Z,0.00
2022-09-23T00:05:44.752Z,0.00
2022-09-23T00:06:44.713Z,0.00
2022-09-23T00:07:44.706Z,0.00
2022-09-23T00:08:44.693Z,0.00
2022-09-23T00:09:44.676Z,0.00
2022-09-23T00:10:44.667Z,0.00
2022-09-23T00:11:44.696Z,0.00
2022-09-23T00:12:44.647Z,0.00
2022-09-23T00:13:44.634Z,0.00
2022-09-23T00:14:44.625Z,0.00
2022-09-23T00:15:44.614Z,0.00
2022-09-23T00:16:44.674Z,0.00
2022-09-23T00:17:44.627Z,0.00
2022-09-23T00:18:44.586Z,0.00
2022-09-23T00:19:44.568Z,0.00
2022-09-23T00:20:44.558Z,0.00
2022-09-23T00:21:44.549Z,0.00
2022-09-23T00:22:44.550Z,0.00
2022-09-23T00:23:44.568Z,0.00
2022-09-23T00:24:44.521Z,0.00
2022-09-23T00:25:44.511Z,0.00
2022-09-23T00:26:44.509Z,0.00
2022-09-23T00:27:44.491Z,0.00
2022-09-23T00:28:44.480Z,0.00
2022-09-23T00:29:44.502Z,0.00
2022-09-23T00:30:44.513Z,0.00
2022-09-23T00:31:44.460Z,0.00
2022-09-23T00:32:44.439Z,0.00
2022-09-23T00:33:44.454Z,0.00
2022-09-23T00:34:44.440Z,0.00
2022-09-23T00:35:44.458Z,0.00
2022-09-23T00:36:44.394Z,0.00
2022-09-23T00:37:44.383Z,0.00
2022-09-23T00:38:44.376Z,0.00
2022-09-23T00:39:44.364Z,0.00
2022-09-23T00:40:44.390Z,0.00
2022-09-23T00:41:44.386Z,0.00
2022-09-23T00:42:44.332Z,0.00
2022-09-23T00:43:44.327Z,0.00
2022-09-23T00:44:44.316Z,0.00
2022-09-23T00:45:44.357Z,0.00
2022-09-23T00:46:44.287Z,0.00
2022-09-23T00:47:44.323Z,0.00
2022-09-23T00:48:44.277Z,0.00
2022-09-23T00:49:44.265Z,0.00
2022-09-23T00:50:44.253Z,0.00
2022-09-23T00:51:44.236Z,0.00
2022-09-23T00:52:44.227Z,0.00
2022-09-23T00:53:44.248Z,0.00
2022-09-23T00:54:44.213Z,0.00
2022-09-23T00:55:44.198Z,0.00
2022-09-23T00:56:44.184Z,0.00
2022-09-23T00:57:44.185Z,0.00
2022-09-23T00:58:44.168Z,0.00
2022-09-23T00:59:44.192Z,0.00
2022-09-23T01:00:44.142Z,0.00
2022-09-23T01:01:44.238Z,0.00
2022-09-23T01:02:44.183Z,0.00
2022-09-23T01:03:44.121Z,0.00
2022-09-23T01:04:44.108Z,0.00
2022-09-23T01:05:44.140Z,0.00
2022-09-23T01:06:44.086Z,0.00
2022-09-23T01:07:44.072Z,0.00
2022-09-23T01:08:44.064Z,0.00
2022-09-23T01:09:44.052Z,0.00
2022-09-23T01:10:44.044Z,0.00
2022-09-23T01:11:44.053Z,0.00
2022-09-23T01:12:44.013Z,0.00
2022-09-23T01:13:44.003Z,0.00
2022-09-23T01:14:43.994Z,0.00
2022-09-23T01:15:43.993Z,0.00
2022-09-23T01:16:44.008Z,0.00
2022-09-23T01:17:44.012Z,0.00
2022-09-23T01:18:43.958Z,0.00
2022-09-23T01:19:43.946Z,0.00
2022-09-23T01:20:43.937Z,0.00
2022-09-23T01:21:43.928Z,0.00
2022-09-23T01:22:43.915Z,0.00
2022-09-23T01:23:43.945Z,0.00
2022-09-23T01:24:43.887Z,0.00
2022-09-23T01:25:43.883Z,0.00
2022-09-23T01:26:43.870Z,0.00
2022-09-23T01:27:43.865Z,0.00
2022-09-23T01:28:43.850Z,0.00
2022-09-23T01:29:43.879Z,0.00
2022-09-23T01:30:43.918Z,0.00
2022-09-23T01:31:43.819Z,0.00
2022-09-23T01:32:43.802Z,0.00
2022-09-23T01:33:43.800Z,0.00
2022-09-23T01:34:43.789Z,0.00
2022-09-23T01:35:43.819Z,0.00
2022-09-23T01:36:43.768Z,0.00
2022-09-23T01:37:43.752Z,0.00
2022-09-23T01:38:43.738Z,0.00
2022-09-23T01:39:43.738Z,0.00
2022-09-23T01:40:43.790Z,0.00
2022-09-23T01:41:43.760Z,0.00
2022-09-23T01:42:43.700Z,0.00
2022-09-23T01:43:43.701Z,0.00
2022-09-23T01:44:43.691Z,0.00
2022-09-23T01:45:43.680Z,0.00
2022-09-23T01:46:43.662Z,0.00
2022-09-23T01:47:43.693Z,0.00
2022-09-23T01:48:43.694Z,0.00
2022-09-23T01:49:43.634Z,0.00
2022-09-23T01:50:43.614Z,0.00
2022-09-23T01:51:43.610Z,0.00
2022-09-23T01:52:43.595Z,0.00
2022-09-23T01:53:43.624Z,0.00
2022-09-23T01:54:43.581Z,0.00
2022-09-23T01:55:43.572Z,0.00
2022-09-23T01:56:43.556Z,0.00
2022-09-23T01:57:43.555Z,0.00
2022-09-23T01:58:43.541Z,0.00
2022-09-23T01:59:43.556Z,0.00
2022-09-23T02:00:43.515Z,0.00
2022-09-23T02:01:43.556Z,0.00
2022-09-23T02:02:43.529Z,0.00
2022-09-23T02:03:43.488Z,0.00
2022-09-23T02:04:43.476Z,0.00
2022-09-23T02:05:43.510Z,0.00
2022-09-23T02:06:43.449Z,0.00
2022-09-23T02:07:43.446Z,0.00
2022-09-23T02:08:43.437Z,0.00
2022-09-23T02:09:43.421Z,0.00
2022-09-23T02:10:43.411Z,0.00
2022-09-23T02:11:43.429Z,0.00
2022-09-23T02:12:43.389Z,0.00
2022-09-23T02:13:43.388Z,0.00
2022-09-23T02:14:43.368Z,0.00
2022-09-23T02:15:43.361Z,0.00
2022-09-23T02:16:43.365Z,0.00
2022-09-23T02:17:43.381Z,0.00
2022-09-23T02:18:43.321Z,0.00
2022-09-23T02:19:43.321Z,0.00
2022-09-23T02:20:43.314Z,0.00
2022-09-23T02:21:43.299Z,0.00
2022-09-23T02:22:43.290Z,0.00
2022-09-23T02:23:43.318Z,0.00
2022-09-23T02:24:43.265Z,0.00
2022-09-23T02:25:43.273Z,0.00
2022-09-23T02:26:43.252Z,0.00
2022-09-23T02:27:43.241Z,0.00
2022-09-23T02:28:43.234Z,0.00
2022-09-23T02:29:43.254Z,0.00
2022-09-23T02:30:43.213Z,0.00
2022-09-23T02:31:43.235Z,0.00
2022-09-23T02:32:43.188Z,0.00
2022-09-23T02:33:43.184Z,0.00
2022-09-23T02:34:43.167Z,0.00
2022-09-23T02:35:43.187Z,0.00
2022-09-23T02:36:43.154Z,0.00
2022-09-23T02:37:43.137Z,0.00
2022-09-23T02:38:43.117Z,0.00
2022-09-23T02:39:43.118Z,0.00
2022-09-23T02:40:43.142Z,0.00
2022-09-23T02:41:43.119Z,0.00
2022-09-23T02:42:43.089Z,0.00
2022-09-23T02:43:43.080Z,0.00
2022-09-23T02:44:43.066Z,0.00
2022-09-23T02:45:43.101Z,0.00
2022-09-23T02:46:43.048Z,0.00
2022-09-23T02:47:43.093Z,0.00
2022-09-23T02:48:43.023Z,0.00
2022-09-23T02:49:43.019Z,0.00
2022-09-23T02:50:43.013Z,0.00
2022-09-23T02:51:43.000Z,0.00
2022-09-23T02:52:42.980Z,0.00
2022-09-23T02:53:43.010Z,0.00
2022-09-23T02:54:42.961Z,0.00
2022-09-23T02:55:42.962Z,0.00
2022-09-23T02:56:42.941Z,0.00
2022-09-23T02:57:42.939Z,0.00
2022-09-23T02:58:42.922Z,0.00
2022-09-23T02:59:42.950Z,0.00
2022-09-23T03:00:42.904Z,0.00
2022-09-23T03:01:42.892Z,0.00
2022-09-23T03:02:42.923Z,0.00
2022-09-23T03:03:42.873Z,0.00
2022-09-23T03:04:42.853Z,0.00
2022-09-23T03:05:42.892Z,0.00
2022-09-23T03:06:42.833Z,0.00
2022-09-23T03:07:42.835Z,0.00
2022-09-23T03:08:42.823Z,0.00
2022-09-23T03:09:42.805Z,0.00
2022-09-23T03:10:42.797Z,0.00
2022-09-23T03:11:42.817Z,0.00
2022-09-23T03:12:42.774Z,0.00
2022-09-23T03:13:42.781Z,0.00
2022-09-23T03:14:42.766Z,0.00
2022-09-23T03:15:42.757Z,0.00
2022-09-23T03:16:42.856Z,0.00
2022-09-23T03:17:42.759Z,0.00
2022-09-23T03:18:42.716Z,0.00
2022-09-23T03:19:42.708Z,0.00
2022-09-23T03:20:42.701Z,0.00
2022-09-23T03:21:42.690Z,0.00
2022-09-23T03:22:42.679Z,0.00
2022-09-23T03:23:42.778Z,0.00
2022-09-23T03:24:42.658Z,0.00
2022-09-23T03:25:42.647Z,0.00
2022-09-23T03:26:42.632Z,0.00
2022-09-23T03:27:42.632Z,0.00
2022-09-23T03:28:42.611Z,0.00
2022-09-23T03:29:42.632Z,0.00
2022-09-23T03:30:42.595Z,0.00
2022-09-23T03:31:42.658Z,0.00
2022-09-23T03:32:42.571Z,0.00
2022-09-23T03:33:42.564Z,0.00
2022-09-23T03:34:42.543Z,0.00
2022-09-23T03:35:42.573Z,0.00
2022-09-23T03:36:42.524Z,0.00
2022-09-23T03:37:42.527Z,0.00
2022-09-23T03:38:42.503Z,0.00
2022-09-23T03:39:42.500Z,0.00
2022-09-23T03:40:42.533Z,0.00
2022-09-23T03:41:42.525Z,0.00
2022-09-23T03:42:42.464Z,0.00
2022-09-23T03:43:42.456Z,0.00
2022-09-23T03:44:42.445Z,0.00
2022-09-23T03:45:42.539Z,0.00
2022-09-23T03:46:42.424Z,0.00
2022-09-23T03:47:42.450Z,0.00
2022-09-23T03:48:42.406Z,0.00
2022-09-23T03:49:42.389Z,0.00
2022-09-23T03:50:42.393Z,0.00
2022-09-23T03:51:44.649Z,0.00
2022-09-23T03:52:42.358Z,0.00
2022-09-23T03:53:42.386Z,0.00
2022-09-23T03:54:42.340Z,0.00
2022-09-23T03:55:42.329Z,0.00
2022-09-23T03:56:42.319Z,0.00
2022-09-23T03:57:42.309Z,0.00
2022-09-23T03:58:42.298Z,0.00
2022-09-23T03:59:42.310Z,0.00
2022-09-23T04:00:42.319Z,0.00
2022-09-23T04:01:42.311Z,0.00
2022-09-23T04:02:42.263Z,0.00
2022-09-23T04:03:42.240Z,0.00
2022-09-23T04:04:42.238Z,0.00
2022-09-23T04:05:42.250Z,0.00
2022-09-23T04:06:42.213Z,0.00
2022-09-23T04:07:42.193Z,0.00
2022-09-23T04:08:42.206Z,0.00
2022-09-23T04:09:42.181Z,0.00
2022-09-23T04:10:42.181Z,0.00
2022-09-23T04:11:42.183Z,0.00
2022-09-23T04:12:42.153Z,0.00
2022-09-23T04:13:42.140Z,0.00
2022-09-23T04:14:42.135Z,0.00
2022-09-23T04:15:42.113Z,0.00
2022-09-23T04:16:42.148Z,0.00
2022-09-23T04:17:42.125Z,0.00
2022-09-23T04:18:42.085Z,0.00
2022-09-23T04:19:42.064Z,0.00
2022-09-23T04:20:42.064Z,0.00
2022-09-23T04:21:42.054Z,0.00
2022-09-23T04:22:42.060Z,0.00
2022-09-23T04:23:42.056Z,0.00
2022-09-23T04:24:42.025Z,0.00
2022-09-23T04:25:42.017Z,0.00
2022-09-23T04:26:42.008Z,0.00
2022-09-23T04:27:41.987Z,0.00
2022-09-23T04:28:41.985Z,0.00
2022-09-23T04:29:41.995Z,0.00
2022-09-23T04:30:41.961Z,0.00
2022-09-23T04:31:42.076Z,0.00
2022-09-23T04:32:41.940Z,0.00
2022-09-23T04:33:41.929Z,0.00
2022-09-23T04:34:41.919Z,0.00
2022-09-23T04:35:41.949Z,0.00
2022-09-23T04:36:41.854Z,1.00
2022-09-23T04:37:41.830Z,1.00
2022-09-23T04:38:41.820Z,1.00
2022-09-23T04:39:41.830Z,2.00
2022-09-23T04:40:41.930Z,2.00
2022-09-23T04:41:41.810Z,2.00
2022-09-23T04:42:41.780Z,2.00
2022-09-23T04:43:41.770Z,4.00
2022-09-23T04:44:41.761Z,4.00
2022-09-23T04:45:41.754Z,5.00
2022-09-23T04:46:41.761Z,5.00
2022-09-23T04:47:41.762Z,5.00
2022-09-23T04:48:41.721Z,5.00
2022-09-23T04:49:41.713Z,5.00
2022-09-23T04:50:41.699Z,5.00
2022-09-23T04:51:41.693Z,6.00
2022-09-23T04:52:41.683Z,5.00
2022-09-23T04:53:41.711Z,7.00
2022-09-23T04:54:41.658Z,8.00
2022-09-23T04:55:41.651Z,9.00
2022-09-23T04:56:41.635Z,9.00
2022-09-23T04:57:41.633Z,9.00
2022-09-23T04:58:41.616Z,10.00
2022-09-23T04:59:41.635Z,11.00
2022-09-23T05:00:41.673Z,11.00
2022-09-23T05:01:41.764Z,11.00
2022-09-23T05:02:41.581Z,12.00
2022-09-23T05:03:41.577Z,12.00
2022-09-23T05:04:41.562Z,12.00
2022-09-23T05:05:41.570Z,12.00
2022-09-23T05:06:41.538Z,12.00
2022-09-23T05:07:41.528Z,14.00
2022-09-23T05:08:41.516Z,15.00
2022-09-23T05:09:41.504Z,16.00
2022-09-23T05:10:41.490Z,17.00
2022-09-23T05:11:41.521Z,17.00
2022-09-23T05:12:41.476Z,19.00
2022-09-23T05:13:41.470Z,18.00
2022-09-23T05:14:41.457Z,20.00
2022-09-23T05:15:41.448Z,21.00
2022-09-23T05:16:41.470Z,23.00
2022-09-23T05:17:41.440Z,24.00
2022-09-23T05:18:41.415Z,25.00
2022-09-23T05:19:41.411Z,25.00
2022-09-23T05:20:41.394Z,25.00
2022-09-23T05:21:41.388Z,25.00
2022-09-23T05:22:41.381Z,29.00
2022-09-23T05:23:41.400Z,30.00
2022-09-23T05:24:41.354Z,30.00
2022-09-23T05:25:41.344Z,31.00
2022-09-23T05:26:41.333Z,34.00
2022-09-23T05:27:41.325Z,35.00
2022-09-23T05:28:41.313Z,37.00
2022-09-23T05:29:41.328Z,39.00
2022-09-23T05:30:41.284Z,38.00
2022-09-23T05:31:41.383Z,39.00
2022-09-23T05:32:41.275Z,37.00
2022-09-23T05:33:41.255Z,34.00
2022-09-23T05:34:41.247Z,34.00
2022-09-23T05:35:41.266Z,33.00
2022-09-23T05:36:41.227Z,32.00
2022-09-23T05:37:41.223Z,31.00
2022-09-23T05:38:41.208Z,32.00
2022-09-23T05:39:41.205Z,33.00
2022-09-23T05:40:41.272Z,35.00
2022-09-23T05:41:41.204Z,36.00
2022-09-23T05:42:41.168Z,35.00
2022-09-23T05:43:41.158Z,35.00
2022-09-23T05:44:41.151Z,33.00
2022-09-23T05:45:41.141Z,28.00
2022-09-23T05:46:41.164Z,24.00
2022-09-23T05:47:41.149Z,23.00
2022-09-23T05:48:41.127Z,25.00
2022-09-23T05:49:58.598Z,29.00
2022-09-23T05:50:42.082Z,30.00
2022-09-23T05:51:41.078Z,31.00
2022-09-23T05:52:41.060Z,33.00
2022-09-23T05:53:41.099Z,36.00
2022-09-23T05:54:41.042Z,36.00
2022-09-23T05:55:41.040Z,36.00
2022-09-23T05:56:41.030Z,39.00
2022-09-23T05:57:41.027Z,39.00
2022-09-23T05:58:41.003Z,37.00
2022-09-23T05:59:41.042Z,36.00
2022-09-23T06:00:40.984Z,36.00
2022-09-23T06:01:41.001Z,38.00
2022-09-23T06:02:41.022Z,34.00
2022-09-23T06:03:40.965Z,30.00
2022-09-23T06:04:40.944Z,27.00
2022-09-23T06:05:40.977Z,29.00
2022-09-23T06:06:40.927Z,30.00
2022-09-23T06:07:40.913Z,30.00
2022-09-23T06:08:40.898Z,30.00
2022-09-23T06:09:40.895Z,32.00
2022-09-23T06:10:40.876Z,33.00
2022-09-23T06:11:40.896Z,35.00
2022-09-23T06:12:40.856Z,36.00
2022-09-23T06:13:40.861Z,33.00
2022-09-23T06:14:40.837Z,34.00
2022-09-23T06:15:40.854Z,34.00
2022-09-23T06:16:40.817Z,32.00
2022-09-23T06:17:40.845Z,35.00
2022-09-23T06:18:40.810Z,39.00
2022-09-23T06:19:40.799Z,37.00
2022-09-23T06:20:40.779Z,34.00
2022-09-23T06:21:40.770Z,35.00
2022-09-23T06:22:40.759Z,34.00
2022-09-23T06:23:41.928Z,35.00
2022-09-23T06:24:40.746Z,40.00
2022-09-23T06:25:40.735Z,44.00
2022-09-23T06:26:40.720Z,49.00
2022-09-23T06:27:40.707Z,52.00
2022-09-23T06:28:40.698Z,53.00
2022-09-23T06:29:40.711Z,56.00
2022-09-23T06:30:40.674Z,56.00
2022-09-23T06:31:40.783Z,56.00
2022-09-23T06:32:40.662Z,58.00
2022-09-23T06:33:40.654Z,61.00
2022-09-23T06:34:50.009Z,63.00
2022-09-23T06:35:45.594Z,64.00
2022-09-23T06:36:44.513Z,67.00
2022-09-23T06:37:40.611Z,69.00
2022-09-23T06:38:40.593Z,68.00
2022-09-23T06:39:40.588Z,68.00
2022-09-23T06:40:40.628Z,75.00
2022-09-23T06:41:40.602Z,79.00
2022-09-23T06:42:40.545Z,82.00
2022-09-23T06:43:40.545Z,81.00
2022-09-23T06:44:40.538Z,83.00
2022-09-23T06:45:40.524Z,91.00
2022-09-23T06:46:40.557Z,98.00
2022-09-23T06:47:40.535Z,100.00
2022-09-23T06:48:45.404Z,96.00
2022-09-23T06:49:41.477Z,92.00
2022-09-23T06:50:40.468Z,93.00
2022-09-23T06:51:40.468Z,99.00
2022-09-23T06:52:40.450Z,98.00
2022-09-23T06:53:40.480Z,96.00
2022-09-23T06:54:40.438Z,105.00
2022-09-23T06:55:40.420Z,118.00
2022-09-23T06:56:40.419Z,127.00
2022-09-23T06:57:40.399Z,122.00
2022-09-23T06:58:40.387Z,114.00
2022-09-23T06:59:40.399Z,113.00
2022-09-23T07:00:40.369Z,109.00
2022-09-23T07:01:40.427Z,105.00
2022-09-23T07:02:40.433Z,108.00
2022-09-23T07:03:40.340Z,113.00
2022-09-23T07:04:40.330Z,111.00
2022-09-23T07:05:40.340Z,112.00
2022-09-23T07:06:40.301Z,113.00
2022-09-23T07:07:40.292Z,110.00
2022-09-23T07:08:40.283Z,113.00
2022-09-23T07:09:40.282Z,113.00
2022-09-23T07:10:40.263Z,109.00
2022-09-23T07:11:40.283Z,114.00
2022-09-23T07:12:40.244Z,117.00
2022-09-23T07:13:40.234Z,111.00
2022-09-23T07:14:40.221Z,102.00
2022-09-23T07:15:40.232Z,94.00
2022-09-23T07:16:40.206Z,94.00
2022-09-23T07:17:40.214Z,96.00
2022-09-23T07:18:40.186Z,100.00
2022-09-23T07:19:40.165Z,104.00
2022-09-23T07:20:40.157Z,104.00
2022-09-23T07:21:40.146Z,106.00
2022-09-23T07:22:40.135Z,110.00
2022-09-23T07:23:40.153Z,114.00
2022-09-23T07:24:40.115Z,114.00
2022-09-23T07:25:40.107Z,116.00
2022-09-23T07:26:44.879Z,114.00
2022-09-23T07:27:41.078Z,111.00
2022-09-23T07:28:40.078Z,109.00
2022-09-23T07:29:47.666Z,106.00
2022-09-23T07:30:51.154Z,105.00
2022-09-23T07:31:41.077Z,100.00
2022-09-23T07:32:48.059Z,95.00
2022-09-23T07:33:41.066Z,91.00
2022-09-23T07:34:40.010Z,93.00
2022-09-23T07:35:40.031Z,94.00
2022-09-23T07:36:39.990Z,87.00
2022-09-23T07:37:39.981Z,83.00
2022-09-23T07:38:44.923Z,86.00
2022-09-23T07:39:40.975Z,89.00
2022-09-23T07:40:40.027Z,87.00
2022-09-23T07:41:39.973Z,86.00
2022-09-23T07:42:39.924Z,86.00
2022-09-23T07:43:39.914Z,84.00
2022-09-23T07:44:39.903Z,84.00
2022-09-23T07:45:39.893Z,84.00
2022-09-23T07:46:39.960Z,88.00
2022-09-23T07:47:39.903Z,90.00
2022-09-23T07:48:39.865Z,92.00
2022-09-23T07:49:39.845Z,91.00
2022-09-23T07:50:39.844Z,87.00
2022-09-23T07:51:39.834Z,84.00
2022-09-23T07:52:39.815Z,84.00
2022-09-23T07:53:39.828Z,85.00
2022-09-23T07:54:39.795Z,85.00
2022-09-23T07:55:39.786Z,80.00
2022-09-23T07:56:39.774Z,77.00
2022-09-23T07:57:39.765Z,78.00
2022-09-23T07:58:39.756Z,79.00
2022-09-23T07:59:39.767Z,78.00
2022-09-23T08:00:39.728Z,82.00
2022-09-23T08:01:39.906Z,87.00
2022-09-23T08:02:39.755Z,89.00
2022-09-23T08:03:39.709Z,89.00
2022-09-23T08:04:39.689Z,89.00
2022-09-23T08:05:39.699Z,89.00
2022-09-23T08:06:39.670Z,86.00
2022-09-23T08:07:39.657Z,89.00
2022-09-23T08:08:39.644Z,95.00
2022-09-23T08:09:39.636Z,95.00
2022-09-23T08:10:39.648Z,95.00
2022-09-23T08:11:39.649Z,103.00
2022-09-23T08:12:39.604Z,112.00
2022-09-23T08:13:39.596Z,117.00
2022-09-23T08:14:39.582Z,122.00
2022-09-23T08:15:39.599Z,126.00
2022-09-23T08:16:39.552Z,131.00
2022-09-23T08:17:39.601Z,134.00
2022-09-23T08:18:39.531Z,133.00
2022-09-23T08:19:39.532Z,133.00
2022-09-23T08:20:42.560Z,139.00
2022-09-23T08:21:40.503Z,149.00
2022-09-23T08:22:39.492Z,153.00
2022-09-23T08:23:39.514Z,162.00
2022-09-23T08:24:39.473Z,166.00
2022-09-23T08:25:39.464Z,172.00
2022-09-23T08:26:39.745Z,176.00
2022-09-23T08:27:39.435Z,182.00
2022-09-23T08:28:39.425Z,188.00
2022-09-23T08:29:39.442Z,193.00
2022-09-23T08:30:39.433Z,197.00
2022-09-23T08:31:39.395Z,200.00
2022-09-23T08:32:39.378Z,205.00
2022-09-23T08:33:39.367Z,214.00
2022-09-23T08:34:39.359Z,224.00
2022-09-23T08:35:39.377Z,233.00
2022-09-23T08:36:39.336Z,244.00
2022-09-23T08:37:39.328Z,254.00
2022-09-23T08:38:39.317Z,263.00
2022-09-23T08:39:39.309Z,273.00
2022-09-23T08:40:39.365Z,284.00
2022-09-23T08:41:39.310Z,296.00
2022-09-23T08:42:39.271Z,307.00
2022-09-23T08:43:39.265Z,316.00
2022-09-23T08:44:39.250Z,320.00
2022-09-23T08:45:39.241Z,322.00
2022-09-23T08:46:39.223Z,319.00
2022-09-23T08:47:39.250Z,312.00
2022-09-23T08:48:39.203Z,302.00
2022-09-23T08:49:39.197Z,290.00
2022-09-23T08:50:39.185Z,276.00
2022-09-23T08:51:39.181Z,260.00
2022-09-23T08:52:39.162Z,244.00
2022-09-23T08:53:39.184Z,232.00
2022-09-23T08:54:39.143Z,224.00
2022-09-23T08:55:39.133Z,219.00
2022-09-23T08:56:39.122Z,213.00
2022-09-23T08:57:39.114Z,213.00
2022-09-23T08:58:39.096Z,215.00
2022-09-23T08:59:39.115Z,215.00
2022-09-23T09:00:39.078Z,217.00
2022-09-23T09:01:39.102Z,218.00
2022-09-23T09:02:39.152Z,217.00
2022-09-23T09:03:39.045Z,212.00
2022-09-23T09:04:39.046Z,216.00
2022-09-23T09:05:39.056Z,221.00
2022-09-23T09:06:52.546Z,225.00
2022-09-23T09:07:39.998Z,218.00
2022-09-23T09:08:38.998Z,210.00
2022-09-23T09:09:38.988Z,201.00
2022-09-23T09:10:38.976Z,201.00
2022-09-23T09:11:38.988Z,221.00
2022-09-23T09:12:38.958Z,238.00
2022-09-23T09:13:38.982Z,233.00
2022-09-23T09:14:38.937Z,216.00
2022-09-23T09:15:38.957Z,211.00
2022-09-23T09:16:58.431Z,219.00
2022-09-23T09:17:39.937Z,213.00
2022-09-23T09:18:38.890Z,207.00
2022-09-23T09:19:38.881Z,238.00
2022-09-23T09:20:38.871Z,273.00
2022-09-23T09:21:38.863Z,288.00
2022-09-23T09:22:38.865Z,285.00
2022-09-23T09:23:38.869Z,260.00
2022-09-23T09:24:38.833Z,226.00
2022-09-23T09:25:38.823Z,213.00
2022-09-23T09:26:38.813Z,243.00
2022-09-23T09:27:38.801Z,256.00
2022-09-23T09:28:38.791Z,259.00
2022-09-23T09:29:39.149Z,258.00
2022-09-23T09:30:38.828Z,255.00
2022-09-23T09:31:38.842Z,253.00
2022-09-23T09:32:38.756Z,240.00
2022-09-23T09:33:38.736Z,231.00
2022-09-23T09:34:38.725Z,234.00
2022-09-23T09:35:38.755Z,236.00
2022-09-23T09:36:38.708Z,229.00
2022-09-23T09:37:38.704Z,217.00
2022-09-23T09:38:38.689Z,217.00
2022-09-23T09:39:38.676Z,209.00
2022-09-23T09:40:38.708Z,193.00
2022-09-23T09:41:38.678Z,196.00
2022-09-23T09:42:38.658Z,195.00
2022-09-23T09:43:42.095Z,207.00
2022-09-23T09:44:39.619Z,213.00
2022-09-23T09:45:38.613Z,215.00
2022-09-23T09:46:38.657Z,214.00
2022-09-23T09:47:38.629Z,211.00
2022-09-23T09:48:38.581Z,206.00
2022-09-23T09:49:40.658Z,200.00
2022-09-23T09:50:38.558Z,213.00
2022-09-23T09:51:38.557Z,223.00
2022-09-23T09:52:38.491Z,234.00
2022-09-23T09:53:38.511Z,244.00
2022-09-23T09:54:38.469Z,241.00
2022-09-23T09:55:38.450Z,221.00
2022-09-23T09:56:38.526Z,202.00
2022-09-23T09:57:38.431Z,181.00
2022-09-23T09:58:38.419Z,154.00
2022-09-23T09:59:38.437Z,125.00
2022-09-23T10:00:38.402Z,129.00
2022-09-23T10:01:38.413Z,148.00
2022-09-23T10:02:38.499Z,156.00
2022-09-23T10:03:38.368Z,152.00
2022-09-23T10:04:38.428Z,149.00
2022-09-23T10:05:38.367Z,151.00
2022-09-23T10:06:38.339Z,158.00
2022-09-23T10:07:38.320Z,171.00
2022-09-23T10:08:38.320Z,180.00
2022-09-23T10:09:38.304Z,178.00
2022-09-23T10:10:38.289Z,178.00
2022-09-23T10:11:38.305Z,198.00
2022-09-23T10:12:38.268Z,221.00
2022-09-23T10:13:38.259Z,250.00
2022-09-23T10:14:38.248Z,278.00
2022-09-23T10:15:42.397Z,279.00
2022-09-23T10:16:39.308Z,256.00
2022-09-23T10:17:38.218Z,239.00
2022-09-23T10:18:38.209Z,229.00
2022-09-23T10:19:38.198Z,235.00
2022-09-23T10:20:38.206Z,244.00
2022-09-23T10:21:38.170Z,263.00
2022-09-23T10:22:38.225Z,271.00
2022-09-23T10:23:38.150Z,253.00
2022-09-23T10:24:38.153Z,262.00
2022-09-23T10:25:38.140Z,294.00
2022-09-23T10:26:38.124Z,315.00
2022-09-23T10:27:38.119Z,321.00
2022-09-23T10:28:38.130Z,329.00
2022-09-23T10:29:38.082Z,319.00
2022-09-23T10:30:38.213Z,319.00
2022-09-23T10:31:38.075Z,344.00
2022-09-23T10:32:38.062Z,345.00
2022-09-23T10:33:38.046Z,340.00
2022-09-23T10:34:38.065Z,333.00
2022-09-23T10:35:38.026Z,327.00
2022-09-23T10:36:42.385Z,319.00
2022-09-23T10:37:39.005Z,319.00
2022-09-23T10:38:38.000Z,326.00
2022-09-23T10:39:37.991Z,341.00
2022-09-23T10:40:38.078Z,359.00
2022-09-23T10:41:37.976Z,381.00
2022-09-23T10:42:37.964Z,385.00
2022-09-23T10:43:37.946Z,360.00
2022-09-23T10:44:37.945Z,337.00
2022-09-23T10:45:39.858Z,307.00
2022-09-23T10:46:38.036Z,283.00
2022-09-23T10:47:37.906Z,271.00
2022-09-23T10:48:37.905Z,270.00
2022-09-23T10:49:37.892Z,291.00
2022-09-23T10:50:37.880Z,310.00
2022-09-23T10:51:37.867Z,332.00
2022-09-23T10:52:37.890Z,359.00
2022-09-23T10:53:37.848Z,372.00
2022-09-23T10:54:37.850Z,424.00
2022-09-23T10:55:37.830Z,497.00
2022-09-23T10:56:37.824Z,478.00
2022-09-23T10:57:37.806Z,467.00
2022-09-23T10:58:37.835Z,502.00
2022-09-23T10:59:37.789Z,517.00
2022-09-23T11:00:37.818Z,549.00
2022-09-23T11:01:37.799Z,658.00
2022-09-23T11:02:37.756Z,650.00
2022-09-23T11:03:37.744Z,692.00
2022-09-23T11:04:37.804Z,497.00
2022-09-23T11:05:37.732Z,476.00
2022-09-23T11:06:37.722Z,516.00
2022-09-23T11:07:37.702Z,514.00
2022-09-23T11:08:37.710Z,483.00
2022-09-23T11:09:37.681Z,434.00
2022-09-23T11:10:46.411Z,416.00
2022-09-23T11:11:38.656Z,399.00
2022-09-23T11:12:37.654Z,380.00
2022-09-23T11:13:37.637Z,364.00
2022-09-23T11:14:37.637Z,350.00
2022-09-23T11:15:37.628Z,338.00
2022-09-23T11:16:37.690Z,337.00
2022-09-23T11:17:37.599Z,362.00
2022-09-23T11:18:37.591Z,379.00
2022-09-23T11:19:40.116Z,394.00
2022-09-23T11:20:37.570Z,399.00
2022-09-23T11:21:37.563Z,402.00
2022-09-23T11:22:37.587Z,419.00
2022-09-23T11:23:37.545Z,434.00
2022-09-23T11:24:37.534Z,447.00
2022-09-23T11:25:37.535Z,454.00
2022-09-23T11:26:37.517Z,446.00
2022-09-23T11:27:37.521Z,439.00
2022-09-23T11:28:37.520Z,407.00
2022-09-23T11:29:37.479Z,373.00
2022-09-23T11:30:37.528Z,324.00
2022-09-23T11:31:37.458Z,266.00
2022-09-23T11:32:37.449Z,224.00
2022-09-23T11:33:37.449Z,189.00
2022-09-23T11:34:37.457Z,172.00
2022-09-23T11:35:37.412Z,161.00
2022-09-23T11:36:37.415Z,162.00
2022-09-23T11:37:37.393Z,188.00
2022-09-23T11:38:37.381Z,221.00
2022-09-23T11:39:37.375Z,239.00
2022-09-23T11:40:40.967Z,247.00
2022-09-23T11:41:38.353Z,264.00
2022-09-23T11:42:37.346Z,279.00
2022-09-23T11:43:37.336Z,288.00
2022-09-23T11:44:37.327Z,287.00
2022-09-23T11:45:37.335Z,273.00
2022-09-23T11:46:37.328Z,262.00
2022-09-23T11:47:39.701Z,262.00
2022-09-23T11:48:37.285Z,263.00
2022-09-23T11:49:37.270Z,268.00
2022-09-23T11:50:37.260Z,278.00
2022-09-23T11:51:37.250Z,298.00
2022-09-23T11:52:37.268Z,313.00
2022-09-23T11:53:37.234Z,322.00
2022-09-23T11:54:37.222Z,329.00
2022-09-23T11:55:37.829Z,338.00
2022-09-23T11:56:39.601Z,339.00
2022-09-23T11:57:46.849Z,341.00
2022-09-23T11:59:40.552Z,317.00
2022-09-23T12:00:37.165Z,326.00
2022-09-23T12:01:38.533Z,332.00
2022-09-23T12:02:37.210Z,337.00
2022-09-23T12:03:43.988Z,329.00
2022-09-23T12:04:46.329Z,306.00
2022-09-23T12:05:38.197Z,270.00
2022-09-23T12:06:37.088Z,242.00
2022-09-23T12:07:37.087Z,226.00
2022-09-23T12:08:37.068Z,219.00
2022-09-23T12:09:57.162Z,215.00
2022-09-23T12:10:38.081Z,218.00
2022-09-23T12:11:37.037Z,224.00
2022-09-23T12:12:37.038Z,229.00
2022-09-23T12:13:37.019Z,233.00
2022-09-23T12:14:37.010Z,231.00
2022-09-23T12:15:36.994Z,216.00
2022-09-23T12:16:37.085Z,199.00
2022-09-23T12:17:36.974Z,197.00
2022-09-23T12:18:36.968Z,212.00
2022-09-23T12:19:36.947Z,234.00
2022-09-23T12:20:36.944Z,259.00
2022-09-23T12:21:50.156Z,267.00
2022-09-23T12:22:37.950Z,268.00
2022-09-23T12:23:36.907Z,267.00
2022-09-23T12:24:36.906Z,262.00
2022-09-23T12:25:36.887Z,261.00
2022-09-23T12:26:36.879Z,262.00
2022-09-23T12:27:36.870Z,261.00
2022-09-23T12:28:36.877Z,261.00
2022-09-23T12:29:36.850Z,263.00
2022-09-23T12:30:36.894Z,264.00
2022-09-23T12:31:40.343Z,259.00
2022-09-23T12:32:37.817Z,248.00
2022-09-23T12:33:36.801Z,241.00
2022-09-23T12:34:36.821Z,244.00
2022-09-23T12:35:36.780Z,249.00
2022-09-23T12:36:36.778Z,251.00
2022-09-23T12:37:36.761Z,262.00
2022-09-23T12:38:36.755Z,279.00
2022-09-23T12:39:36.743Z,301.00
2022-09-23T12:40:36.835Z,317.00
2022-09-23T12:41:36.728Z,328.00
2022-09-23T12:42:36.715Z,332.00
2022-09-23T12:43:36.696Z,333.00
2022-09-23T12:44:36.688Z,332.00
2022-09-23T12:45:36.748Z,331.00
2022-09-23T12:46:36.687Z,328.00
2022-09-23T12:47:36.653Z,322.00
2022-09-23T12:48:36.649Z,319.00
2022-09-23T12:49:36.641Z,314.00
2022-09-23T12:50:36.628Z,310.00
2022-09-23T12:51:36.613Z,307.00
2022-09-23T12:52:36.631Z,301.00
2022-09-23T12:53:36.591Z,295.00